Terminal Aerodrome Forecast
Issued by NWS

Home | Current Version | Previous Version | Text Only | Print | Product List | Glossary On
Versions: 1 2 3 4 5 6 7 8 9 10 11 12 13 14 15 16 17 18 19 20 21 22 23 24 25 26 27 28 29 30 31 32 33 34 35 36 37
000
FTAK31 PAFA 032320
TAFASC
TAF
PASC 032320Z 0400/0424 08022KT P6SM VCFG OVC004
     FM040400 08025G35KT 2SM BR OVC004
     FM040800 08023G30KT 1/2SM FG OVC003
     FM042200 09022G28KT 6SM BR FEW005=

USA.gov is the U.S. government's official web portal to all federal, state and local government web resources and services.